createdAt,value
2016-09-16T00:00:31.760Z,0.00
2016-09-16T00:01:32.277Z,0.00
2016-09-16T00:02:32.790Z,0.00
2016-09-16T00:03:33.308Z,0.00
2016-09-16T00:04:33.817Z,0.00
2016-09-16T00:05:34.328Z,0.00
2016-09-16T00:06:34.844Z,0.00
2016-09-16T00:07:35.514Z,0.00
2016-09-16T00:08:36.034Z,0.00
2016-09-16T00:09:36.394Z,0.00
2016-09-16T00:10:36.905Z,0.00
2016-09-16T00:11:37.425Z,0.00
2016-09-16T00:12:37.936Z,0.00
2016-09-16T00:13:38.452Z,0.00
2016-09-16T00:14:38.967Z,0.00
2016-09-16T00:15:39.482Z,0.00
2016-09-16T00:16:39.999Z,0.00
2016-09-16T00:17:40.518Z,0.00
2016-09-16T00:18:41.031Z,0.00
2016-09-16T00:19:41.574Z,0.00
2016-09-16T00:20:42.064Z,0.00
2016-09-16T00:21:42.571Z,0.00
2016-09-16T00:22:43.091Z,0.00
2016-09-16T00:23:43.632Z,0.00
2016-09-16T00:24:44.119Z,0.00
2016-09-16T00:25:44.792Z,0.00
2016-09-16T00:26:45.151Z,0.00
2016-09-16T00:27:45.661Z,0.00
2016-09-16T00:28:47.529Z,0.00
2016-09-16T00:29:46.852Z,0.00
2016-09-16T00:30:47.358Z,0.00
2016-09-16T00:31:47.718Z,0.00
2016-09-16T00:32:48.415Z,0.00
2016-09-16T00:33:48.751Z,0.00
2016-09-16T00:34:49.263Z,0.00
2016-09-16T00:35:49.778Z,0.00
2016-09-16T00:36:50.291Z,0.00
2016-09-16T00:37:50.959Z,0.00
2016-09-16T00:38:51.326Z,0.00
2016-09-16T00:39:51.845Z,0.00
2016-09-16T00:40:52.346Z,0.00
2016-09-16T00:41:52.861Z,0.00
2016-09-16T00:42:53.376Z,0.00
2016-09-16T00:43:53.892Z,0.00
2016-09-16T00:44:54.407Z,0.00
2016-09-16T00:45:54.923Z,0.00
2016-09-16T00:46:55.432Z,0.00
2016-09-16T00:47:56.096Z,0.00
2016-09-16T00:48:56.619Z,0.00
2016-09-16T00:49:57.009Z,0.00
2016-09-16T00:50:57.497Z,0.00
2016-09-16T00:51:58.014Z,0.00
2016-09-16T00:52:58.537Z,0.00
2016-09-16T00:53:59.052Z,0.00
2016-09-16T00:54:59.720Z,0.00
2016-09-16T00:56:00.089Z,0.00
2016-09-16T00:57:00.603Z,0.00
2016-09-16T00:58:01.112Z,0.00
2016-09-16T00:59:01.627Z,0.00
2016-09-16T01:00:02.140Z,0.00
2016-09-16T01:01:02.652Z,0.00
2016-09-16T01:02:03.166Z,0.00
2016-09-16T01:03:03.684Z,0.00
2016-09-16T01:04:04.203Z,0.00
2016-09-16T01:05:04.864Z,0.00
2016-09-16T01:06:05.382Z,0.00
2016-09-16T01:07:05.745Z,0.00
2016-09-16T01:08:06.258Z,0.00
2016-09-16T01:09:06.778Z,0.00
2016-09-16T01:10:07.441Z,0.00
2016-09-16T01:11:07.815Z,0.00
2016-09-16T01:12:08.325Z,0.00
2016-09-16T01:13:08.839Z,0.00
2016-09-16T01:14:09.358Z,0.00
2016-09-16T01:15:09.877Z,0.00
2016-09-16T01:16:10.394Z,0.00
2016-09-16T01:17:11.806Z,0.00
2016-09-16T01:18:11.422Z,0.00
2016-09-16T01:19:11.934Z,0.00
2016-09-16T01:20:12.458Z,0.00
2016-09-16T01:21:12.960Z,0.00
2016-09-16T01:22:13.625Z,0.00
2016-09-16T01:23:13.993Z,0.00
2016-09-16T01:24:14.517Z,0.00
2016-09-16T01:25:15.027Z,0.00
2016-09-16T01:26:15.545Z,0.00
2016-09-16T01:27:16.670Z,0.00
2016-09-16T01:28:16.584Z,0.00
2016-09-16T01:29:17.098Z,0.00
2016-09-16T01:30:17.619Z,0.00
2016-09-16T01:31:18.133Z,0.00
2016-09-16T01:32:18.653Z,0.00
2016-09-16T01:33:19.313Z,0.00
2016-09-16T01:34:19.695Z,0.00
2016-09-16T01:35:22.149Z,0.00
2016-09-16T01:36:20.707Z,0.00
2016-09-16T01:37:21.221Z,0.00
2016-09-16T01:38:21.756Z,0.00
2016-09-16T01:39:22.247Z,0.00
2016-09-16T01:40:22.929Z,0.00
2016-09-16T01:41:23.275Z,0.00
2016-09-16T01:42:23.785Z,0.00
2016-09-16T01:43:24.301Z,0.00
2016-09-16T01:44:24.968Z,0.00
2016-09-16T01:45:25.332Z,0.00
2016-09-16T01:46:25.996Z,0.00
2016-09-16T01:47:26.509Z,0.00
2016-09-16T01:48:26.872Z,0.00
2016-09-16T01:49:27.388Z,0.00
2016-09-16T01:50:27.908Z,0.00
2016-09-16T01:51:28.571Z,0.00
2016-09-16T01:52:29.087Z,0.00
2016-09-16T01:53:29.447Z,0.00
2016-09-16T01:54:29.957Z,0.00
2016-09-16T01:55:30.471Z,0.00
2016-09-16T01:56:30.984Z,0.00
2016-09-16T01:57:31.495Z,0.00
2016-09-16T01:58:32.012Z,0.00
2016-09-16T01:59:32.671Z,0.00
2016-09-16T02:00:33.039Z,0.00
2016-09-16T02:01:33.554Z,0.00
2016-09-16T02:02:34.217Z,0.00
2016-09-16T02:03:34.577Z,0.00
2016-09-16T02:04:35.249Z,0.00
2016-09-16T02:05:37.414Z,0.00
2016-09-16T02:06:36.138Z,0.00
2016-09-16T02:07:36.652Z,0.00
2016-09-16T02:08:37.318Z,0.00
2016-09-16T02:09:37.684Z,0.00
2016-09-16T02:10:38.194Z,0.00
2016-09-16T02:11:38.857Z,0.00
2016-09-16T02:12:39.702Z,0.00
2016-09-16T02:13:39.737Z,0.00
2016-09-16T02:14:40.255Z,0.00
2016-09-16T02:15:40.764Z,0.00
2016-09-16T02:16:41.278Z,0.00
2016-09-16T02:17:41.945Z,0.00
2016-09-16T02:18:42.308Z,0.00
2016-09-16T02:19:42.823Z,0.00
2016-09-16T02:20:43.330Z,0.00
2016-09-16T02:21:43.850Z,0.00
2016-09-16T02:22:44.517Z,0.00
2016-09-16T02:23:44.885Z,0.00
2016-09-16T02:24:45.400Z,0.00
2016-09-16T02:25:45.908Z,0.00
2016-09-16T02:26:46.423Z,0.00
2016-09-16T02:27:46.937Z,0.00
2016-09-16T02:28:47.451Z,0.00
2016-09-16T02:29:47.964Z,0.00
2016-09-16T02:30:48.477Z,0.00
2016-09-16T02:31:48.992Z,0.00
2016-09-16T02:32:49.506Z,0.00
2016-09-16T02:33:50.020Z,0.00
2016-09-16T02:34:50.539Z,0.00
2016-09-16T02:35:51.050Z,0.00
2016-09-16T02:36:51.716Z,0.00
2016-09-16T02:37:52.101Z,0.00
2016-09-16T02:38:52.744Z,0.00
2016-09-16T02:39:53.105Z,0.00
2016-09-16T02:40:53.650Z,0.00
2016-09-16T02:41:54.286Z,0.00
2016-09-16T02:42:54.654Z,0.00
2016-09-16T02:43:55.323Z,0.00
2016-09-16T02:44:55.689Z,0.00
2016-09-16T02:45:56.203Z,0.00
2016-09-16T02:46:56.715Z,0.00
2016-09-16T02:47:57.232Z,0.00
2016-09-16T02:48:57.748Z,0.00
2016-09-16T02:49:58.286Z,0.00
2016-09-16T02:50:58.784Z,0.00
2016-09-16T02:51:59.295Z,0.00
2016-09-16T02:52:59.812Z,0.00
2016-09-16T02:54:00.321Z,0.00
2016-09-16T02:55:00.986Z,0.00
2016-09-16T02:56:01.350Z,0.00
2016-09-16T02:57:01.865Z,0.00
2016-09-16T02:58:02.378Z,0.00
2016-09-16T02:59:02.890Z,0.00
2016-09-16T03:00:03.411Z,0.00
2016-09-16T03:01:04.079Z,0.00
2016-09-16T03:02:04.437Z,0.00
2016-09-16T03:03:04.970Z,0.00
2016-09-16T03:04:05.465Z,0.00
2016-09-16T03:05:06.128Z,0.00
2016-09-16T03:06:06.489Z,0.00
2016-09-16T03:07:07.303Z,0.00
2016-09-16T03:08:07.519Z,0.00
2016-09-16T03:09:08.029Z,0.00
2016-09-16T03:10:08.541Z,0.00
2016-09-16T03:11:09.059Z,0.00
2016-09-16T03:12:09.718Z,0.00
2016-09-16T03:13:10.087Z,0.00
2016-09-16T03:14:10.751Z,0.00
2016-09-16T03:15:11.116Z,0.00
2016-09-16T03:16:11.783Z,0.00
2016-09-16T03:17:12.149Z,0.00
2016-09-16T03:18:12.662Z,0.00
2016-09-16T03:19:13.186Z,0.00
2016-09-16T03:20:13.698Z,0.00
2016-09-16T03:21:14.274Z,0.00
2016-09-16T03:22:14.752Z,0.00
2016-09-16T03:23:15.248Z,0.00
2016-09-16T03:24:15.761Z,0.00
2016-09-16T03:25:16.427Z,0.00
2016-09-16T03:26:16.792Z,0.00
2016-09-16T03:27:17.319Z,0.00
2016-09-16T03:28:17.821Z,0.00
2016-09-16T03:29:18.340Z,0.00
2016-09-16T03:30:19.003Z,0.00
2016-09-16T03:31:19.372Z,0.00
2016-09-16T03:32:19.883Z,0.00
2016-09-16T03:33:20.390Z,0.00
2016-09-16T03:34:21.058Z,0.00
2016-09-16T03:35:21.427Z,0.00
2016-09-16T03:36:21.936Z,0.00
2016-09-16T03:37:22.446Z,0.00
2016-09-16T03:38:22.960Z,0.00
2016-09-16T03:39:23.626Z,0.00
2016-09-16T03:40:24.137Z,0.00
2016-09-16T03:41:24.505Z,0.00
2016-09-16T03:42:25.019Z,0.00
2016-09-16T03:43:26.734Z,0.00
2016-09-16T03:44:26.046Z,0.00
2016-09-16T03:45:26.561Z,0.00
2016-09-16T03:46:27.071Z,0.00
2016-09-16T03:47:27.584Z,0.00
2016-09-16T03:48:28.403Z,0.00
2016-09-16T03:49:28.616Z,0.00
2016-09-16T03:50:29.130Z,0.00
2016-09-16T03:51:29.649Z,0.00
2016-09-16T03:52:30.170Z,0.00
2016-09-16T03:53:30.684Z,0.00
2016-09-16T03:54:31.209Z,0.00
2016-09-16T03:55:31.721Z,0.00
2016-09-16T03:56:32.238Z,0.00
2016-09-16T03:57:32.755Z,0.00
2016-09-16T03:58:33.269Z,0.00
2016-09-16T03:59:33.790Z,0.00
2016-09-16T04:00:34.303Z,0.00
2016-09-16T04:01:34.820Z,0.00
2016-09-16T04:02:35.476Z,0.00
2016-09-16T04:03:35.844Z,0.00
2016-09-16T04:04:36.358Z,0.00
2016-09-16T04:05:37.025Z,0.00
2016-09-16T04:06:37.391Z,0.00
2016-09-16T04:07:37.910Z,0.00
2016-09-16T04:08:38.415Z,0.00
2016-09-16T04:09:38.929Z,0.00
2016-09-16T04:10:39.441Z,0.00
2016-09-16T04:11:39.961Z,0.00
2016-09-16T04:12:40.476Z,0.00
2016-09-16T04:13:40.990Z,0.00
2016-09-16T04:14:41.658Z,0.00
2016-09-16T04:15:42.174Z,0.00
2016-09-16T04:16:42.534Z,0.00
2016-09-16T04:17:43.045Z,0.00
2016-09-16T04:18:43.566Z,0.00
2016-09-16T04:19:44.082Z,0.00
2016-09-16T04:20:44.590Z,0.00
2016-09-16T04:21:45.099Z,0.00
2016-09-16T04:22:45.624Z,0.00
2016-09-16T04:23:46.134Z,0.00
2016-09-16T04:24:46.643Z,0.00
2016-09-16T04:25:47.160Z,0.00
2016-09-16T04:26:47.683Z,0.00
2016-09-16T04:27:49.093Z,0.00
2016-09-16T04:28:48.703Z,0.00
2016-09-16T04:29:49.218Z,0.00
2016-09-16T04:30:49.732Z,0.00
2016-09-16T04:31:52.061Z,0.00
2016-09-16T04:32:50.919Z,0.00
2016-09-16T04:33:51.286Z,0.00
2016-09-16T04:34:51.807Z,0.00
2016-09-16T04:35:52.321Z,0.00
2016-09-16T04:36:52.979Z,0.00
2016-09-16T04:37:53.345Z,0.00
2016-09-16T04:38:53.857Z,0.00
2016-09-16T04:39:54.430Z,0.00
2016-09-16T04:40:54.911Z,0.00
2016-09-16T04:41:55.412Z,0.00
2016-09-16T04:42:55.918Z,0.00
2016-09-16T04:43:56.459Z,0.00
2016-09-16T04:44:56.946Z,0.00
2016-09-16T04:45:57.461Z,0.00
2016-09-16T04:46:58.277Z,0.00
2016-09-16T04:47:58.493Z,0.00
2016-09-16T04:48:59.005Z,0.00
2016-09-16T04:49:59.519Z,0.00
2016-09-16T04:51:00.034Z,0.00
2016-09-16T04:52:00.694Z,0.00
2016-09-16T04:53:01.064Z,0.00
2016-09-16T04:54:01.605Z,0.00
2016-09-16T04:55:02.248Z,0.00
2016-09-16T04:56:02.609Z,0.00
2016-09-16T04:57:03.124Z,0.00
2016-09-16T04:58:03.639Z,0.00
2016-09-16T04:59:04.152Z,0.00
2016-09-16T05:00:04.671Z,0.00
2016-09-16T05:01:05.181Z,0.00
2016-09-16T05:02:05.693Z,0.00
2016-09-16T05:03:06.376Z,0.00
2016-09-16T05:04:06.722Z,0.00
2016-09-16T05:05:07.236Z,0.00
2016-09-16T05:06:07.748Z,0.00
2016-09-16T05:07:08.431Z,0.00
2016-09-16T05:08:08.779Z,0.00
2016-09-16T05:09:09.295Z,0.00
2016-09-16T05:10:09.967Z,0.00
2016-09-16T05:11:10.337Z,0.00
2016-09-16T05:12:10.856Z,0.00
2016-09-16T05:13:11.367Z,0.00
2016-09-16T05:14:11.878Z,0.00
2016-09-16T05:15:12.399Z,0.00
2016-09-16T05:16:12.918Z,0.00
2016-09-16T05:17:14.926Z,0.00
2016-09-16T05:18:13.940Z,0.00
2016-09-16T05:19:14.613Z,0.00
2016-09-16T05:20:14.972Z,0.00
2016-09-16T05:21:15.483Z,0.00
2016-09-16T05:22:15.996Z,0.00
2016-09-16T05:23:16.511Z,0.00
2016-09-16T05:24:17.328Z,0.00
2016-09-16T05:25:17.695Z,0.00
2016-09-16T05:26:18.063Z,0.00
2016-09-16T05:27:18.576Z,0.00
2016-09-16T05:28:19.090Z,0.00
2016-09-16T05:29:19.605Z,0.00
2016-09-16T05:30:20.122Z,0.00
2016-09-16T05:31:20.789Z,0.00
2016-09-16T05:32:21.176Z,0.00
2016-09-16T05:33:21.818Z,0.00
2016-09-16T05:34:22.184Z,0.00
2016-09-16T05:35:22.698Z,0.00
2016-09-16T05:36:23.211Z,0.00
2016-09-16T05:37:23.879Z,0.00
2016-09-16T05:38:24.246Z,0.00
2016-09-16T05:39:24.758Z,0.00
2016-09-16T05:40:25.273Z,1.00
2016-09-16T05:41:25.785Z,1.00
2016-09-16T05:42:26.301Z,1.00
2016-09-16T05:43:27.116Z,1.00
2016-09-16T05:44:27.352Z,1.00
2016-09-16T05:45:27.849Z,1.00
2016-09-16T05:46:28.368Z,1.00
2016-09-16T05:47:28.890Z,1.00
2016-09-16T05:48:29.405Z,1.00
2016-09-16T05:49:29.923Z,1.00
2016-09-16T05:50:30.456Z,1.00
2016-09-16T05:51:31.101Z,2.00
2016-09-16T05:52:31.465Z,2.00
2016-09-16T05:53:31.986Z,2.00
2016-09-16T05:54:32.499Z,2.00
2016-09-16T05:55:33.012Z,2.00
2016-09-16T05:56:33.537Z,3.00
2016-09-16T05:57:34.644Z,3.00
2016-09-16T05:58:34.558Z,3.00
2016-09-16T05:59:35.074Z,3.00
2016-09-16T06:00:35.592Z,4.00
2016-09-16T06:01:36.101Z,4.00
2016-09-16T06:02:36.617Z,4.00
2016-09-16T06:03:37.134Z,4.00
2016-09-16T06:04:37.646Z,4.00
2016-09-16T06:05:38.185Z,4.00
2016-09-16T06:06:38.676Z,4.00
2016-09-16T06:07:39.189Z,3.00
2016-09-16T06:08:39.699Z,3.00
2016-09-16T06:09:40.217Z,3.00
2016-09-16T06:10:40.731Z,3.00
2016-09-16T06:11:41.244Z,3.00
2016-09-16T06:12:41.760Z,3.00
2016-09-16T06:13:42.274Z,3.00
2016-09-16T06:14:42.790Z,4.00
2016-09-16T06:15:43.303Z,4.00
2016-09-16T06:16:43.821Z,4.00
2016-09-16T06:17:44.335Z,5.00
2016-09-16T06:18:44.850Z,5.00
2016-09-16T06:19:45.372Z,5.00
2016-09-16T06:20:45.876Z,5.00
2016-09-16T06:21:46.543Z,6.00
2016-09-16T06:22:46.913Z,6.00
2016-09-16T06:23:47.616Z,6.00
2016-09-16T06:24:48.103Z,7.00
2016-09-16T06:25:48.480Z,7.00
2016-09-16T06:26:48.981Z,7.00
2016-09-16T06:27:49.513Z,7.00
2016-09-16T06:28:50.022Z,7.00
2016-09-16T06:29:50.533Z,7.00
2016-09-16T06:30:51.047Z,7.00
2016-09-16T06:31:51.561Z,8.00
2016-09-16T06:32:52.076Z,8.00
2016-09-16T06:33:52.615Z,8.00
2016-09-16T06:34:53.108Z,8.00
2016-09-16T06:35:53.618Z,8.00
2016-09-16T06:36:54.137Z,7.00
2016-09-16T06:37:54.650Z,5.00
2016-09-16T06:38:55.170Z,4.00
2016-09-16T06:39:55.686Z,4.00
2016-09-16T06:40:56.194Z,4.00
2016-09-16T06:41:56.741Z,4.00
2016-09-16T06:42:57.221Z,4.00
2016-09-16T06:43:57.740Z,5.00
2016-09-16T06:44:58.254Z,5.00
2016-09-16T06:45:58.770Z,5.00
2016-09-16T06:46:59.459Z,6.00
2016-09-16T06:47:59.809Z,6.00
2016-09-16T06:49:00.323Z,6.00
2016-09-16T06:50:00.828Z,6.00
2016-09-16T06:51:01.337Z,6.00
2016-09-16T06:52:01.860Z,7.00
2016-09-16T06:53:02.380Z,7.00
2016-09-16T06:54:02.891Z,8.00
2016-09-16T06:55:03.559Z,9.00
2016-09-16T06:56:03.926Z,9.00
2016-09-16T06:57:04.589Z,9.00
2016-09-16T06:58:04.957Z,9.00
2016-09-16T06:59:05.627Z,8.00
2016-09-16T07:00:06.053Z,8.00
2016-09-16T07:01:06.516Z,8.00
2016-09-16T07:02:07.032Z,8.00
2016-09-16T07:03:07.544Z,8.00
2016-09-16T07:04:08.092Z,9.00
2016-09-16T07:05:08.574Z,9.00
2016-09-16T07:06:09.085Z,9.00
2016-09-16T07:07:09.595Z,9.00
2016-09-16T07:08:10.111Z,9.00
2016-09-16T07:09:10.624Z,10.00
2016-09-16T07:10:11.167Z,10.00
2016-09-16T07:11:11.653Z,11.00
2016-09-16T07:12:12.326Z,11.00
2016-09-16T07:13:12.827Z,11.00
2016-09-16T07:14:13.195Z,11.00
2016-09-16T07:15:13.709Z,11.00
2016-09-16T07:16:14.224Z,11.00
2016-09-16T07:17:14.739Z,11.00
2016-09-16T07:18:15.412Z,11.00
2016-09-16T07:19:15.770Z,10.00
2016-09-16T07:20:16.281Z,11.00
2016-09-16T07:21:16.800Z,11.00
2016-09-16T07:22:17.464Z,12.00
2016-09-16T07:23:17.828Z,12.00
2016-09-16T07:24:18.340Z,13.00
2016-09-16T07:25:18.855Z,14.00
2016-09-16T07:26:19.368Z,14.00
2016-09-16T07:27:19.958Z,15.00
2016-09-16T07:28:20.427Z,17.00
2016-09-16T07:29:20.918Z,18.00
2016-09-16T07:30:21.430Z,23.00
2016-09-16T07:31:22.093Z,25.00
2016-09-16T07:32:22.458Z,23.00
2016-09-16T07:33:22.975Z,19.00
2016-09-16T07:34:23.493Z,18.00
2016-09-16T07:35:24.013Z,19.00
2016-09-16T07:36:24.831Z,21.00
2016-09-16T07:37:25.054Z,26.00
2016-09-16T07:38:25.564Z,26.00
2016-09-16T07:39:26.224Z,25.00
2016-09-16T07:40:26.589Z,22.00
2016-09-16T07:41:27.105Z,19.00
2016-09-16T07:42:27.619Z,19.00
2016-09-16T07:43:28.284Z,19.00
2016-09-16T07:44:28.648Z,19.00
2016-09-16T07:45:29.159Z,19.00
2016-09-16T07:46:29.825Z,18.00
2016-09-16T07:47:30.191Z,19.00
2016-09-16T07:48:30.713Z,19.00
2016-09-16T07:49:31.215Z,18.00
2016-09-16T07:50:31.733Z,16.00
2016-09-16T07:51:32.250Z,16.00
2016-09-16T07:52:32.761Z,18.00
2016-09-16T07:53:33.275Z,19.00
2016-09-16T07:54:33.788Z,19.00
2016-09-16T07:55:34.452Z,20.00
2016-09-16T07:56:34.822Z,21.00
2016-09-16T07:57:35.332Z,21.00
2016-09-16T07:58:35.840Z,22.00
2016-09-16T07:59:36.361Z,21.00
2016-09-16T08:00:37.028Z,20.00
2016-09-16T08:01:37.392Z,20.00
2016-09-16T08:02:37.907Z,20.00
2016-09-16T08:03:38.452Z,20.00
2016-09-16T08:04:38.936Z,20.00
2016-09-16T08:05:39.596Z,19.00
2016-09-16T08:06:39.957Z,19.00
2016-09-16T08:07:40.469Z,19.00
2016-09-16T08:08:40.986Z,19.00
2016-09-16T08:09:41.651Z,18.00
2016-09-16T08:10:42.015Z,18.00
2016-09-16T08:11:42.536Z,18.00
2016-09-16T08:12:43.056Z,18.00
2016-09-16T08:13:43.569Z,17.00
2016-09-16T08:14:44.081Z,17.00
2016-09-16T08:15:44.597Z,17.00
2016-09-16T08:16:45.144Z,17.00
2016-09-16T08:17:45.631Z,16.00
2016-09-16T08:18:46.144Z,16.00
2016-09-16T08:19:46.656Z,16.00
2016-09-16T08:20:47.173Z,15.00
2016-09-16T08:21:47.689Z,15.00
2016-09-16T08:22:48.231Z,15.00
2016-09-16T08:23:48.872Z,15.00
2016-09-16T08:24:49.243Z,15.00
2016-09-16T08:25:49.744Z,15.00
2016-09-16T08:26:50.257Z,15.00
2016-09-16T08:27:50.776Z,14.00
2016-09-16T08:28:51.285Z,14.00
2016-09-16T08:29:51.821Z,13.00
2016-09-16T08:30:52.318Z,13.00
2016-09-16T08:31:52.836Z,12.00
2016-09-16T08:32:53.348Z,12.00
2016-09-16T08:33:55.367Z,12.00
2016-09-16T08:34:54.376Z,12.00
2016-09-16T08:35:54.892Z,12.00
2016-09-16T08:36:55.407Z,12.00
2016-09-16T08:37:56.070Z,12.00
2016-09-16T08:38:56.434Z,12.00
2016-09-16T08:39:57.098Z,11.00
2016-09-16T08:40:57.463Z,11.00
2016-09-16T08:41:57.985Z,11.00
2016-09-16T08:42:58.518Z,11.00
2016-09-16T08:43:59.036Z,12.00
2016-09-16T08:44:59.520Z,12.00
2016-09-16T08:46:00.055Z,12.00
2016-09-16T08:47:00.705Z,12.00
2016-09-16T08:48:01.074Z,12.00
2016-09-16T08:49:01.592Z,12.00
2016-09-16T08:50:02.108Z,12.00
2016-09-16T08:51:02.619Z,12.00
2016-09-16T08:52:03.282Z,13.00
2016-09-16T08:53:03.793Z,13.00
2016-09-16T08:54:04.310Z,14.00
2016-09-16T08:55:04.673Z,15.00
2016-09-16T08:56:05.213Z,16.00
2016-09-16T08:57:05.704Z,17.00
2016-09-16T08:58:06.220Z,18.00
2016-09-16T08:59:06.737Z,18.00
2016-09-16T09:00:07.250Z,19.00
2016-09-16T09:01:07.769Z,19.00
2016-09-16T09:02:08.431Z,19.00
2016-09-16T09:03:08.945Z,19.00
2016-09-16T09:04:09.309Z,19.00
2016-09-16T09:05:09.975Z,19.00
2016-09-16T09:06:10.343Z,19.00
2016-09-16T09:07:10.858Z,18.00
2016-09-16T09:08:11.398Z,18.00
2016-09-16T09:09:11.885Z,18.00
2016-09-16T09:10:12.404Z,18.00
2016-09-16T09:11:12.923Z,17.00
2016-09-16T09:12:13.579Z,17.00
2016-09-16T09:13:13.942Z,17.00
2016-09-16T09:14:14.456Z,17.00
2016-09-16T09:15:14.965Z,16.00
2016-09-16T09:16:15.631Z,16.00
2016-09-16T09:17:16.146Z,16.00
2016-09-16T09:18:16.515Z,17.00
2016-09-16T09:19:17.029Z,19.00
2016-09-16T09:20:17.722Z,22.00
2016-09-16T09:21:18.056Z,23.00
2016-09-16T09:22:18.577Z,23.00
2016-09-16T09:23:19.090Z,23.00
2016-09-16T09:24:19.612Z,22.00
2016-09-16T09:25:20.129Z,22.00
2016-09-16T09:26:20.645Z,21.00
2016-09-16T09:27:21.157Z,21.00
2016-09-16T09:28:21.674Z,21.00
2016-09-16T09:29:22.189Z,21.00
2016-09-16T09:30:22.853Z,21.00
2016-09-16T09:31:23.221Z,26.00
2016-09-16T09:32:23.754Z,28.00
2016-09-16T09:33:24.246Z,20.00
2016-09-16T09:34:24.762Z,19.00
2016-09-16T09:35:25.281Z,18.00
2016-09-16T09:36:25.944Z,18.00
2016-09-16T09:37:26.307Z,18.00
2016-09-16T09:38:26.977Z,18.00
2016-09-16T09:39:27.497Z,19.00
2016-09-16T09:40:27.863Z,19.00
2016-09-16T09:41:28.373Z,20.00
2016-09-16T09:42:28.886Z,20.00
2016-09-16T09:43:29.402Z,20.00
2016-09-16T09:44:29.912Z,20.00
2016-09-16T09:45:30.580Z,20.00
2016-09-16T09:46:30.950Z,20.00
2016-09-16T09:47:31.464Z,19.00
2016-09-16T09:48:31.978Z,19.00
2016-09-16T09:49:32.491Z,20.00
2016-09-16T09:50:33.156Z,21.00
2016-09-16T09:51:33.521Z,30.00
2016-09-16T09:52:34.040Z,28.00
2016-09-16T09:53:34.555Z,26.00
2016-09-16T09:54:35.065Z,23.00
2016-09-16T09:55:35.622Z,23.00
2016-09-16T09:56:36.102Z,30.00
2016-09-16T09:57:36.610Z,28.00
2016-09-16T09:58:37.128Z,21.00
2016-09-16T09:59:37.649Z,22.00
2016-09-16T10:00:38.174Z,25.00
2016-09-16T10:01:38.688Z,21.00
2016-09-16T10:02:39.205Z,22.00
2016-09-16T10:03:39.866Z,28.00
2016-09-16T10:04:40.381Z,22.00
2016-09-16T10:05:40.896Z,44.00
2016-09-16T10:06:41.259Z,47.00
2016-09-16T10:07:41.780Z,47.00
2016-09-16T10:08:42.445Z,48.00
2016-09-16T10:09:42.806Z,48.00
2016-09-16T10:10:43.326Z,50.00
2016-09-16T10:11:43.863Z,51.00
2016-09-16T10:12:44.501Z,51.00
2016-09-16T10:13:44.864Z,52.00
2016-09-16T10:14:45.388Z,52.00
2016-09-16T10:15:45.898Z,53.00
2016-09-16T10:16:46.562Z,53.00
2016-09-16T10:17:46.928Z,53.00
2016-09-16T10:18:47.465Z,53.00
2016-09-16T10:19:47.973Z,54.00
2016-09-16T10:20:48.471Z,55.00
2016-09-16T10:21:49.135Z,55.00
2016-09-16T10:22:49.501Z,54.00
2016-09-16T10:23:50.014Z,44.00
2016-09-16T10:24:50.524Z,46.00
2016-09-16T10:25:51.041Z,29.00
2016-09-16T10:26:51.557Z,29.00
2016-09-16T10:27:52.221Z,30.00
2016-09-16T10:28:52.578Z,22.00
2016-09-16T10:29:53.097Z,22.00
2016-09-16T10:30:53.612Z,22.00
2016-09-16T10:31:54.123Z,35.00
2016-09-16T10:32:54.634Z,23.00
2016-09-16T10:33:55.295Z,28.00
2016-09-16T10:34:55.659Z,32.00
2016-09-16T10:35:56.192Z,24.00
2016-09-16T10:36:56.855Z,26.00
2016-09-16T10:37:57.224Z,28.00
2016-09-16T10:38:57.763Z,27.00
2016-09-16T10:39:58.407Z,33.00
2016-09-16T10:40:58.772Z,37.00
2016-09-16T10:41:59.435Z,42.00
2016-09-16T10:43:00.415Z,38.00
2016-09-16T10:44:00.317Z,40.00
2016-09-16T10:45:00.832Z,41.00
2016-09-16T10:46:01.345Z,35.00
2016-09-16T10:47:02.312Z,28.00
2016-09-16T10:48:02.382Z,29.00
2016-09-16T10:49:02.894Z,26.00
2016-09-16T10:50:03.559Z,24.00
2016-09-16T10:51:03.923Z,23.00
2016-09-16T10:52:04.440Z,22.00
2016-09-16T10:53:05.101Z,22.00
2016-09-16T10:54:05.466Z,21.00
2016-09-16T10:55:05.993Z,22.00
2016-09-16T10:56:06.645Z,22.00
2016-09-16T10:57:07.011Z,23.00
2016-09-16T10:58:07.525Z,24.00
2016-09-16T10:59:08.042Z,25.00
2016-09-16T11:00:08.702Z,25.00
2016-09-16T11:01:09.067Z,27.00
2016-09-16T11:02:09.582Z,29.00
2016-09-16T11:03:10.098Z,29.00
2016-09-16T11:04:10.614Z,29.00
2016-09-16T11:05:11.444Z,29.00
2016-09-16T11:06:11.642Z,30.00
2016-09-16T11:07:12.155Z,30.00
2016-09-16T11:08:12.669Z,28.00
2016-09-16T11:09:13.178Z,29.00
2016-09-16T11:10:13.852Z,28.00
2016-09-16T11:11:14.210Z,29.00
2016-09-16T11:12:14.731Z,29.00
2016-09-16T11:13:15.251Z,35.00
2016-09-16T11:14:15.923Z,49.00
2016-09-16T11:15:16.333Z,57.00
2016-09-16T11:16:16.825Z,62.00
2016-09-16T11:17:17.314Z,62.00
2016-09-16T11:18:17.833Z,63.00
2016-09-16T11:19:18.340Z,63.00
2016-09-16T11:20:18.858Z,64.00
2016-09-16T11:21:19.374Z,64.00
2016-09-16T11:22:19.886Z,65.00
2016-09-16T11:23:20.548Z,65.00
2016-09-16T11:24:20.915Z,66.00
2016-09-16T11:25:21.428Z,67.00
2016-09-16T11:26:21.941Z,67.00
2016-09-16T11:27:22.455Z,29.00
2016-09-16T11:28:22.975Z,28.00
2016-09-16T11:29:23.490Z,63.00
2016-09-16T11:30:24.029Z,63.00
2016-09-16T11:31:24.819Z,64.00
2016-09-16T11:32:25.034Z,60.00
2016-09-16T11:33:25.555Z,25.00
2016-09-16T11:34:26.212Z,24.00
2016-09-16T11:35:26.605Z,19.00
2016-09-16T11:36:27.092Z,17.00
2016-09-16T11:37:27.604Z,17.00
2016-09-16T11:38:28.121Z,18.00
2016-09-16T11:39:28.633Z,18.00
2016-09-16T11:40:29.150Z,19.00
2016-09-16T11:41:29.661Z,20.00
2016-09-16T11:42:30.180Z,21.00
2016-09-16T11:43:30.692Z,21.00
2016-09-16T11:44:31.208Z,22.00
2016-09-16T11:45:31.873Z,22.00
2016-09-16T11:46:32.238Z,22.00
2016-09-16T11:47:32.773Z,22.00
2016-09-16T11:48:33.272Z,22.00
2016-09-16T11:49:33.943Z,21.00
2016-09-16T11:50:34.315Z,21.00
2016-09-16T11:51:34.831Z,21.00
2016-09-16T11:52:35.344Z,21.00
2016-09-16T11:53:35.857Z,20.00
2016-09-16T11:54:36.374Z,20.00
2016-09-16T11:55:36.886Z,20.00
2016-09-16T11:56:37.548Z,20.00
2016-09-16T11:57:37.915Z,20.00
2016-09-16T11:58:38.431Z,21.00
2016-09-16T11:59:38.959Z,21.00
2016-09-16T12:00:39.465Z,21.00
2016-09-16T12:01:39.977Z,22.00
2016-09-16T12:02:40.492Z,22.00
2016-09-16T12:03:41.012Z,22.00
2016-09-16T12:04:41.525Z,22.00
2016-09-16T12:05:42.047Z,22.00
2016-09-16T12:06:42.557Z,21.00
2016-09-16T12:07:43.066Z,20.00
2016-09-16T12:08:43.584Z,19.00
2016-09-16T12:09:44.094Z,19.00
2016-09-16T12:10:44.758Z,18.00
2016-09-16T12:11:45.125Z,17.00
2016-09-16T12:12:45.639Z,17.00
2016-09-16T12:13:46.180Z,16.00
2016-09-16T12:14:46.668Z,16.00
2016-09-16T12:15:47.180Z,16.00
2016-09-16T12:16:47.993Z,16.00
2016-09-16T12:17:48.357Z,15.00
2016-09-16T12:18:48.875Z,14.00
2016-09-16T12:19:49.239Z,14.00
2016-09-16T12:20:49.756Z,13.00
2016-09-16T12:21:50.266Z,13.00
2016-09-16T12:22:50.784Z,13.00
2016-09-16T12:23:51.302Z,12.00
2016-09-16T12:24:51.816Z,13.00
2016-09-16T12:25:52.334Z,13.00
2016-09-16T12:26:52.882Z,13.00
2016-09-16T12:27:53.380Z,13.00
2016-09-16T12:28:53.890Z,13.00
2016-09-16T12:29:54.399Z,13.00
2016-09-16T12:30:54.930Z,14.00
2016-09-16T12:31:55.428Z,14.00
2016-09-16T12:32:55.943Z,14.00
2016-09-16T12:33:56.458Z,15.00
2016-09-16T12:34:56.976Z,15.00
2016-09-16T12:35:57.496Z,15.00
2016-09-16T12:36:58.007Z,15.00
2016-09-16T12:37:58.523Z,14.00
2016-09-16T12:39:00.683Z,14.00
2016-09-16T12:39:59.547Z,14.00
2016-09-16T12:41:00.064Z,14.00
2016-09-16T12:42:00.582Z,15.00
2016-09-16T12:43:01.094Z,15.00
2016-09-16T12:44:01.613Z,15.00
2016-09-16T12:45:02.128Z,16.00
2016-09-16T12:46:02.793Z,16.00
2016-09-16T12:47:03.177Z,16.00
2016-09-16T12:48:03.673Z,17.00
2016-09-16T12:49:04.340Z,17.00
2016-09-16T12:50:04.709Z,17.00
2016-09-16T12:51:05.221Z,17.00
2016-09-16T12:52:05.729Z,17.00
2016-09-16T12:53:06.243Z,17.00
2016-09-16T12:54:06.762Z,17.00
2016-09-16T12:55:07.311Z,17.00
2016-09-16T12:56:07.803Z,17.00
2016-09-16T12:57:08.316Z,17.00
2016-09-16T12:58:08.828Z,17.00
2016-09-16T12:59:09.494Z,18.00
2016-09-16T13:00:09.865Z,18.00
2016-09-16T13:01:10.527Z,18.00
2016-09-16T13:02:10.898Z,19.00
2016-09-16T13:03:11.569Z,19.00
2016-09-16T13:04:12.085Z,20.00
2016-09-16T13:05:12.601Z,20.00
2016-09-16T13:06:13.113Z,21.00
2016-09-16T13:07:13.475Z,21.00
2016-09-16T13:08:13.998Z,22.00
2016-09-16T13:09:14.663Z,22.00
2016-09-16T13:10:15.030Z,22.00
2016-09-16T13:11:15.537Z,22.00
2016-09-16T13:12:16.205Z,22.00
2016-09-16T13:13:16.569Z,22.00